Time;durP1;ratioP1;P1;durP2;ratioP2;P2;SDS_P1;SDS_P2;PMS_P1;PMS_P2;Temp;Humidity;BMP_temperature;BMP_pressure;BME280_temperature;BME280_humidity;BME280_pressure;Samples;Min_cycle;Max_cycle;Signal;HPM_P1;HPM_P2
2020/12/27 00:00:57;;;;;;;9.05;7.57;;;23.50;92.10;;;;;;5069546;28;20362;-82
2020/12/27 00:03:24;;;;;;;11.13;7.30;;;23.70;91.70;;;;;;5069652;28;20374;-85
2020/12/27 00:05:51;;;;;;;8.82;7.32;;;23.90;90.70;;;;;;5069714;28;20523;-83
2020/12/27 00:08:18;;;;;;;8.13;7.32;;;24.00;90.30;;;;;;5069728;28;20366;-88
2020/12/27 00:10:45;;;;;;;7.38;6.68;;;24.00;91.10;;;;;;5063545;28;20387;-82
2020/12/27 00:13:12;;;;;;;6.45;5.85;;;23.90;89.30;;;;;;5049447;28;20368;-81
2020/12/27 00:15:39;;;;;;;7.20;6.50;;;23.90;90.60;;;;;;5049591;28;20387;-84
2020/12/27 00:18:06;;;;;;;6.97;6.28;;;24.10;89.40;;;;;;5052148;28;20906;-84
2020/12/27 00:20:33;;;;;;;10.77;7.18;;;24.50;90.20;;;;;;5069714;28;20511;-84
2020/12/27 00:23:00;;;;;;;8.13;6.65;;;24.80;89.00;;;;;;5069538;28;20448;-82
2020/12/27 00:25:27;;;;;;;7.40;6.20;;;25.40;87.60;;;;;;5065521;28;20431;-82
2020/12/27 00:27:54;;;;;;;7.15;5.88;;;26.40;82.40;;;;;;5063451;28;20431;-83
2020/12/27 00:30:21;;;;;;;7.47;5.80;;;27.00;78.50;;;;;;5067515;28;20454;-82
2020/12/27 00:32:48;;;;;;;5.85;5.30;;;27.50;82.70;;;;;;5088623;28;20375;-83
2020/12/27 00:35:15;;;;;;;5.70;5.10;;;28.00;75.60;;;;;;5069421;28;20382;-82
2020/12/27 00:37:42;;;;;;;4.13;3.65;;;28.50;73.60;;;;;;5069221;28;20382;-83
2020/12/27 00:40:10;;;;;;;5.95;4.57;;;28.50;66.20;;;;;;5069262;28;20409;-83
2020/12/27 00:42:37;;;;;;;5.30;4.43;;;28.30;69.00;;;;;;5074249;28;20376;-83
2020/12/27 00:45:05;;;;;;;4.05;3.72;;;28.30;67.30;;;;;;5087711;28;20434;-83
2020/12/27 00:47:32;;;;;;;4.78;4.20;;;28.30;68.20;;;;;;5069587;28;20374;-83
2020/12/27 00:50:00;;;;;;;5.53;4.00;;;28.60;70.20;;;;;;5057567;28;20430;-83
2020/12/27 00:52:27;;;;;;;5.28;4.28;;;28.50;65.70;;;;;;5065714;28;20372;-83
2020/12/27 00:54:54;;;;;;;6.95;4.13;;;28.60;67.50;;;;;;5049024;28;20921;-84
2020/12/27 00:57:21;;;;;;;5.05;4.47;;;28.80;72.70;;;;;;5049848;28;20471;-84
2020/12/27 00:59:48;;;;;;;5.35;4.47;;;29.10;68.30;;;;;;5049884;28;20387;-83
2020/12/27 01:02:15;;;;;;;5.10;4.47;;;29.00;65.60;;;;;;5049542;28;20379;-83
2020/12/27 01:04:42;;;;;;;5.43;4.88;;;29.20;69.10;;;;;;5064148;28;20425;-83
2020/12/27 01:07:09;;;;;;;6.30;5.00;;;29.20;65.80;;;;;;5068099;28;20408;-85
2020/12/27 01:09:36;;;;;;;5.03;4.53;;;28.90;67.20;;;;;;5061772;28;20447;-84
2020/12/27 01:12:03;;;;;;;5.00;4.50;;;28.70;69.40;;;;;;5064874;28;20469;-83
2020/12/27 01:14:30;;;;;;;6.47;5.00;;;28.50;68.10;;;;;;5072778;28;20385;-84
2020/12/27 01:16:57;;;;;;;4.90;4.30;;;28.20;72.80;;;;;;5062675;28;20434;-83
2020/12/27 01:19:24;;;;;;;4.30;3.92;;;28.10;68.80;;;;;;5058196;28;20397;-83
2020/12/27 01:21:55;;;;;;;5.32;4.32;;;27.80;68.20;;;;;;5051563;28;20394;-84
2020/12/27 01:24:22;;;;;;;5.32;4.82;;;27.40;73.70;;;;;;5064095;28;20435;-83
2020/12/27 01:26:49;;;;;;;4.88;4.45;;;27.50;82.20;;;;;;5064257;28;20386;-83
2020/12/27 01:29:16;;;;;;;6.20;4.65;;;27.80;74.60;;;;;;5063991;28;20787;-84
2020/12/27 01:31:43;;;;;;;4.60;4.10;;;28.10;75.30;;;;;;5067787;28;20401;-85
2020/12/27 01:34:10;;;;;;;4.85;4.35;;;28.30;73.10;;;;;;5062294;28;20447;-84
2020/12/27 01:36:38;;;;;;;6.93;4.93;;;28.10;73.60;;;;;;5062376;28;20390;-83
2020/12/27 01:39:07;;;;;;;6.03;4.00;;;28.10;73.70;;;;;;5070881;28;20394;-86
2020/12/27 01:41:36;;;;;;;5.55;4.25;;;28.00;72.70;;;;;;5072243;28;20370;-86
2020/12/27 01:44:08;;;;;;;5.10;4.50;;;28.00;75.30;;;;;;5068927;28;20465;-87
2020/12/27 01:46:37;;;;;;;5.13;4.63;;;28.30;81.50;;;;;;5057225;28;21279;-87
2020/12/27 01:49:05;;;;;;;5.03;4.43;;;28.40;77.60;;;;;;5069468;28;20532;-86
2020/12/27 01:51:33;;;;;;;5.78;4.07;;;28.20;74.40;;;;;;5056246;28;20424;-86
2020/12/27 01:54:01;;;;;;;4.43;3.72;;;28.30;78.70;;;;;;5064584;28;20951;-84
2020/12/27 01:56:41;;;;;;;4.70;3.42;;;28.40;76.60;;;;;;5072174;28;20383;-84
2020/12/27 01:59:20;;;;;;;4.93;3.50;;;28.50;71.30;;;;;;5070453;28;20390;-86
2020/12/27 02:01:47;;;;;;;4.53;3.17;;;28.60;72.50;;;;;;5060599;28;20796;-83
2020/12/27 02:04:14;;;;;;;2.95;2.75;;;28.50;74.80;;;;;;5063001;28;20399;-83
2020/12/27 02:06:42;;;;;;;3.95;2.58;;;28.70;70.70;;;;;;5067081;28;20394;-84
2020/12/27 02:09:12;;;;;;;3.58;2.60;;;28.70;71.10;;;;;;5052086;28;20360;-83
2020/12/27 02:11:40;;;;;;;4.40;2.60;;;28.70;71.00;;;;;;5052810;28;20883;-84
2020/12/27 02:14:08;;;;;;;2.63;2.40;;;28.70;71.70;;;;;;5071683;28;20378;-83
2020/12/27 02:16:35;;;;;;;2.47;1.93;;;28.80;74.40;;;;;;5053246;28;20405;-83
2020/12/27 02:19:07;;;;;;;3.33;2.10;;;28.80;70.60;;;;;;5071074;28;20386;-83
2020/12/27 02:21:34;;;;;;;5.10;2.05;;;28.70;72.90;;;;;;5071952;28;20392;-86
2020/12/27 02:24:01;;;;;;;3.40;1.80;;;28.70;69.00;;;;;;5071899;28;20394;-82
2020/12/27 02:26:29;;;;;;;2.53;1.80;;;28.70;70.40;;;;;;5071135;28;20425;-83
2020/12/27 02:28:57;;;;;;;4.00;1.50;;;28.80;74.20;;;;;;5070969;28;20421;-83
2020/12/27 02:31:28;;;;;;;4.18;1.67;;;28.90;72.30;;;;;;5070805;28;20378;-84
2020/12/27 02:33:59;;;;;;;3.33;1.60;;;29.10;69.60;;;;;;5059477;28;20424;-85
2020/12/27 02:36:26;;;;;;;1.52;1.42;;;29.20;72.80;;;;;;5069771;28;20390;-84
2020/12/27 02:38:53;;;;;;;2.13;1.30;;;29.40;67.80;;;;;;5081876;28;20419;-83
2020/12/27 02:41:23;;;;;;;3.33;1.63;;;29.40;67.70;;;;;;5091537;28;20384;-84
2020/12/27 02:43:50;;;;;;;3.97;1.40;;;29.40;68.80;;;;;;5070155;28;20406;-83
2020/12/27 02:46:24;;;;;;;2.00;1.30;;;29.40;65.80;;;;;;5071302;28;20406;-82
2020/12/27 02:48:51;;;;;;;4.25;1.27;;;29.50;70.30;;;;;;5058372;28;20859;-82
2020/12/27 02:51:19;;;;;;;3.65;1.38;;;29.70;66.70;;;;;;5052154;28;20468;-83
2020/12/27 02:53:50;;;;;;;2.08;1.00;;;29.70;66.00;;;;;;5051612;28;20735;-83
2020/12/27 02:56:19;;;;;;;1.33;1.00;;;29.70;64.50;;;;;;5051332;28;20387;-84
2020/12/27 02:58:47;;;;;;;2.70;1.33;;;29.80;63.20;;;;;;5069908;28;20452;-85
2020/12/27 03:01:16;;;;;;;2.58;1.30;;;29.90;62.80;;;;;;5070490;28;20435;-85
2020/12/27 03:03:44;;;;;;;1.77;1.30;;;29.80;64.90;;;;;;5066982;28;20386;-83
2020/12/27 03:06:11;;;;;;;2.97;1.00;;;29.90;63.30;;;;;;5071353;28;20405;-84
2020/12/27 03:08:39;;;;;;;2.38;1.20;;;30.00;62.70;;;;;;5071493;28;20892;-83
2020/12/27 03:11:07;;;;;;;2.05;1.10;;;30.00;63.00;;;;;;5069042;28;20402;-84
2020/12/27 03:13:34;;;;;;;2.20;1.17;;;30.10;64.80;;;;;;5068853;28;20397;-83
2020/12/27 03:16:04;;;;;;;3.40;1.20;;;30.10;60.00;;;;;;5062034;28;20515;-84
2020/12/27 03:18:32;;;;;;;2.55;1.15;;;30.10;61.30;;;;;;5067632;28;20441;-83
2020/12/27 03:20:59;;;;;;;1.88;0.85;;;30.30;60.50;;;;;;5069225;28;20548;-83
2020/12/27 03:23:26;;;;;;;3.97;1.20;;;30.50;54.60;;;;;;5069421;28;20900;-83
2020/12/27 03:25:53;;;;;;;2.20;0.70;;;30.60;51.50;;;;;;5069533;28;20493;-84
2020/12/27 03:28:20;;;;;;;4.47;0.60;;;30.70;45.60;;;;;;5070381;28;20496;-84
2020/12/27 03:30:47;;;;;;;1.38;0.50;;;30.80;39.30;;;;;;5069860;28;20419;-82
2020/12/27 03:33:14;;;;;;;2.78;0.63;;;30.80;36.80;;;;;;5069293;28;20397;-83
2020/12/27 03:35:41;;;;;;;1.33;0.98;;;30.70;40.10;;;;;;5069135;28;20706;-83
2020/12/27 03:38:08;;;;;;;1.65;0.47;;;30.70;42.20;;;;;;5069876;28;20402;-82
2020/12/27 03:40:35;;;;;;;2.33;0.77;;;30.70;40.20;;;;;;5070383;28;20367;-82
2020/12/27 03:43:02;;;;;;;1.23;0.70;;;30.70;40.80;;;;;;5070952;28;20469;-84
2020/12/27 03:45:29;;;;;;;1.95;0.65;;;30.70;42.00;;;;;;5070687;28;20401;-83
2020/12/27 03:47:56;;;;;;;1.05;0.70;;;30.80;39.60;;;;;;5070525;28;20397;-84
2020/12/27 03:50:24;;;;;;;2.58;0.80;;;30.80;41.80;;;;;;5071099;28;20784;-82
2020/12/27 03:52:51;;;;;;;2.65;1.17;;;30.80;48.50;;;;;;5070721;28;20374;-82
2020/12/27 03:55:18;;;;;;;2.42;1.27;;;30.90;57.10;;;;;;5070656;28;20868;-83
2020/12/27 03:57:45;;;;;;;4.43;1.63;;;30.80;62.60;;;;;;5070541;28;20378;-83
2020/12/27 04:00:13;;;;;;;3.78;1.40;;;30.60;63.50;;;;;;5070107;28;20378;-84
2020/12/27 04:02:40;;;;;;;3.40;1.40;;;30.40;64.90;;;;;;5070371;28;20420;-83
2020/12/27 04:05:07;;;;;;;3.45;1.55;;;30.20;64.70;;;;;;5069824;28;20402;-84
2020/12/27 04:07:34;;;;;;;2.67;1.38;;;30.10;68.30;;;;;;5069830;28;20381;-84
2020/12/27 04:10:01;;;;;;;3.60;1.40;;;30.10;65.50;;;;;;5069689;28;20358;-84
2020/12/27 04:12:28;;;;;;;3.78;1.25;;;30.00;67.80;;;;;;5069577;28;20388;-84
2020/12/27 04:14:55;;;;;;;3.53;1.25;;;30.10;67.90;;;;;;5069530;28;20358;-84
2020/12/27 04:17:22;;;;;;;4.40;1.50;;;30.00;66.40;;;;;;5069451;28;20379;-83
2020/12/27 04:19:49;;;;;;;6.55;1.30;;;29.90;70.10;;;;;;5069533;28;20378;-84
2020/12/27 04:22:16;;;;;;;2.40;1.13;;;29.80;70.70;;;;;;5069676;28;20389;-84
2020/12/27 04:24:43;;;;;;;2.33;1.13;;;29.80;70.60;;;;;;5069518;28;20410;-83
2020/12/27 04:27:10;;;;;;;2.17;1.38;;;30.00;68.90;;;;;;5069249;28;20469;-84
2020/12/27 04:29:37;;;;;;;3.58;1.20;;;29.90;67.10;;;;;;5069199;28;20767;-83
2020/12/27 04:32:05;;;;;;;3.15;1.20;;;29.80;68.00;;;;;;5069338;28;20394;-83
2020/12/27 04:34:32;;;;;;;3.55;1.10;;;29.60;69.40;;;;;;5069176;28;20385;-83
2020/12/27 04:36:59;;;;;;;3.03;1.23;;;29.60;67.90;;;;;;5068884;28;20405;-83
2020/12/27 04:39:30;;;;;;;4.20;1.00;;;29.40;69.80;;;;;;5068598;28;20800;-83
2020/12/27 04:41:57;;;;;;;2.42;1.00;;;29.50;70.50;;;;;;5069178;28;20374;-83
2020/12/27 04:44:25;;;;;;;3.30;1.15;;;29.50;70.10;;;;;;5069016;28;20468;-83
2020/12/27 04:46:56;;;;;;;3.83;1.07;;;29.50;70.40;;;;;;5069182;28;20397;-84
2020/12/27 04:49:23;;;;;;;2.00;1.02;;;29.40;69.40;;;;;;5068999;28;20402;-83
2020/12/27 04:51:53;;;;;;;3.47;0.95;;;29.40;70.00;;;;;;5069346;28;20402;-83
2020/12/27 04:54:26;;;;;;;5.47;1.20;;;29.20;69.70;;;;;;5068943;28;20383;-83
2020/12/27 04:56:55;;;;;;;6.30;1.30;;;28.90;69.70;;;;;;5068997;28;20381;-83
2020/12/27 04:59:22;;;;;;;2.20;1.00;;;28.70;71.70;;;;;;5069177;28;20405;-83
2020/12/27 05:01:53;;;;;;;2.30;1.20;;;28.60;72.30;;;;;;5069971;28;20461;-83
2020/12/27 05:04:24;;;;;;;4.28;1.08;;;28.50;70.60;;;;;;5069488;28;20406;-83
2020/12/27 05:06:54;;;;;;;4.13;1.20;;;28.50;72.50;;;;;;5069710;28;20382;-83
2020/12/27 05:09:28;;;;;;;3.87;1.10;;;28.40;73.30;;;;;;5070697;28;20454;-83
2020/12/27 05:11:56;;;;;;;2.92;1.15;;;28.40;73.40;;;;;;5070548;28;20377;-83
2020/12/27 05:14:27;;;;;;;1.80;1.00;;;28.60;71.40;;;;;;5069678;28;20431;-84
2020/12/27 05:16:56;;;;;;;1.58;1.08;;;28.60;69.50;;;;;;5070380;28;20381;-84
2020/12/27 05:19:25;;;;;;;3.25;1.00;;;28.60;71.70;;;;;;5069475;28;20406;-83
2020/12/27 05:21:54;;;;;;;3.10;0.90;;;28.40;70.80;;;;;;5070517;28;20374;-82
2020/12/27 05:24:22;;;;;;;5.45;1.10;;;28.30;72.20;;;;;;5070002;28;20492;-83
2020/12/27 05:26:52;;;;;;;2.43;1.20;;;28.30;71.50;;;;;;5069706;28;20444;-83
2020/12/27 05:29:35;;;;;;;2.97;0.93;;;28.10;72.40;;;;;;5069800;28;20388;-83
2020/12/27 05:32:04;;;;;;;1.70;0.90;;;28.10;74.40;;;;;;5069757;28;20378;-83
2020/12/27 05:34:32;;;;;;;4.90;1.20;;;28.20;73.00;;;;;;5069802;28;20396;-83
2020/12/27 05:37:07;;;;;;;4.25;0.95;;;28.20;73.30;;;;;;5069697;28;20377;-82
2020/12/27 05:39:34;;;;;;;5.50;0.90;;;28.30;72.60;;;;;;5069393;28;20866;-83
2020/12/27 05:42:08;;;;;;;2.47;0.88;;;28.10;70.90;;;;;;5069427;28;20386;-82
2020/12/27 05:44:38;;;;;;;4.47;1.20;;;27.90;71.30;;;;;;5069348;28;20406;-83
2020/12/27 05:47:05;;;;;;;6.13;1.33;;;27.80;72.40;;;;;;5069298;28;20871;-82
2020/12/27 05:49:32;;;;;;;2.58;0.88;;;27.60;72.40;;;;;;5070367;28;20378;-83
2020/12/27 05:52:00;;;;;;;3.65;1.02;;;27.50;72.90;;;;;;5069748;28;20406;-83
2020/12/27 05:54:36;;;;;;;5.50;1.10;;;27.30;73.60;;;;;;5069540;28;20469;-82
2020/12/27 05:57:06;;;;;;;5.20;0.90;;;27.20;74.10;;;;;;5069227;28;20686;-82
2020/12/27 05:59:35;;;;;;;2.45;0.98;;;27.00;74.30;;;;;;5068278;28;20439;-83
2020/12/27 06:02:03;;;;;;;4.10;0.90;;;27.00;74.30;;;;;;5068800;28;20358;-82
2020/12/27 06:05:05;;;;;;;2.13;1.00;;;27.00;74.80;;;;;;5069539;28;20738;-82
2020/12/27 06:07:37;;;;;;;2.10;0.90;;;27.10;73.90;;;;;;5069311;28;20777;-83
2020/12/27 06:10:22;;;;;;;3.38;0.90;;;27.00;74.60;;;;;;5070066;28;20424;-82
2020/12/27 06:13:21;;;;;;;2.20;1.00;;;27.00;74.00;;;;;;5072735;28;20374;-83
2020/12/27 06:15:54;;;;;;;2.10;0.98;;;26.80;74.20;;;;;;5072646;28;20541;-83
2020/12/27 06:18:26;;;;;;;3.05;1.02;;;26.60;75.90;;;;;;5055874;28;20374;-83
2020/12/27 06:21:09;;;;;;;2.83;1.05;;;26.60;76.80;;;;;;5072984;28;20416;-83
2020/12/27 06:23:37;;;;;;;4.15;0.90;;;26.60;77.10;;;;;;5072531;28;20737;-83
2020/12/27 06:26:06;;;;;;;4.47;1.08;;;26.60;77.20;;;;;;5072246;28;20398;-83
2020/12/27 06:28:34;;;;;;;3.10;1.00;;;26.60;78.00;;;;;;5072694;28;20377;-83
2020/12/27 06:31:09;;;;;;;3.70;1.00;;;26.60;77.50;;;;;;5072883;28;20390;-83
2020/12/27 06:33:41;;;;;;;3.60;0.80;;;26.50;77.10;;;;;;5073289;28;20458;-83
2020/12/27 06:36:28;;;;;;;2.58;1.00;;;26.50;77.10;;;;;;5073162;28;20791;-82
2020/12/27 06:38:57;;;;;;;2.70;1.00;;;26.40;77.30;;;;;;5072361;28;20846;-82
2020/12/27 06:41:24;;;;;;;2.13;1.00;;;26.30;76.30;;;;;;5072915;28;20753;-82
2020/12/27 06:43:51;;;;;;;3.07;1.10;;;26.20;76.20;;;;;;5073105;28;20455;-84
2020/12/27 06:46:26;;;;;;;2.00;0.90;;;26.10;77.40;;;;;;5073644;28;20378;-83
2020/12/27 06:49:09;;;;;;;2.72;1.00;;;26.00;78.10;;;;;;5073303;28;20377;-83
2020/12/27 06:51:41;;;;;;;2.50;1.00;;;25.90;79.20;;;;;;5073224;28;20390;-83
2020/12/27 06:54:09;;;;;;;4.17;0.93;;;25.80;79.00;;;;;;5072902;28;20425;-83
2020/12/27 06:56:41;;;;;;;2.67;1.02;;;25.80;79.50;;;;;;5073357;28;20412;-82
2020/12/27 06:59:09;;;;;;;3.97;1.20;;;25.80;80.10;;;;;;5072874;28;20374;-82
2020/12/27 07:01:36;;;;;;;2.25;0.90;;;25.80;80.30;;;;;;5072525;28;20867;-83
2020/12/27 07:04:15;;;;;;;2.53;0.98;;;25.80;80.50;;;;;;5070721;28;20440;-83
2020/12/27 07:06:49;;;;;;;2.60;0.90;;;25.80;80.50;;;;;;5070785;28;20413;-82
2020/12/27 07:09:26;;;;;;;1.98;1.00;;;25.80;81.00;;;;;;5070835;28;20374;-83
2020/12/27 07:12:08;;;;;;;3.15;1.10;;;25.70;81.10;;;;;;5070977;28;20382;-82
2020/12/27 07:14:43;;;;;;;2.67;1.00;;;25.60;81.30;;;;;;5070915;28;21271;-82
2020/12/27 07:17:11;;;;;;;3.47;1.15;;;25.60;81.20;;;;;;5070928;28;20361;-83
2020/12/27 07:19:39;;;;;;;2.88;1.25;;;25.50;82.00;;;;;;5070590;28;20386;-82
2020/12/27 07:22:10;;;;;;;3.85;1.27;;;25.40;81.50;;;;;;5070265;28;20372;-83
2020/12/27 07:24:39;;;;;;;3.92;0.90;;;25.30;82.10;;;;;;5070346;28;20455;-82
2020/12/27 07:27:11;;;;;;;5.07;0.98;;;25.30;81.90;;;;;;5070462;28;20370;-83
2020/12/27 07:29:39;;;;;;;3.05;1.10;;;25.20;82.10;;;;;;5070369;28;20378;-82
2020/12/27 07:32:07;;;;;;;5.30;1.38;;;25.20;82.60;;;;;;5070247;28;20366;-82
2020/12/27 07:34:34;;;;;;;3.13;1.02;;;25.10;83.70;;;;;;5070252;28;20397;-82
2020/12/27 07:37:06;;;;;;;3.70;1.33;;;25.00;82.90;;;;;;5070090;28;20970;-83
2020/12/27 07:39:56;;;;;;;4.22;1.10;;;25.00;83.30;;;;;;5070247;28;20410;-82
2020/12/27 07:42:34;;;;;;;3.42;1.10;;;25.00;82.80;;;;;;5070186;28;20382;-82
2020/12/27 07:45:06;;;;;;;5.38;1.00;;;25.00;83.10;;;;;;5070011;28;20539;-82
2020/12/27 07:47:43;;;;;;;5.25;1.13;;;24.90;83.20;;;;;;5070136;28;20443;-82
2020/12/27 07:50:11;;;;;;;3.58;1.30;;;24.80;84.00;;;;;;5070335;28;20713;-82
2020/12/27 07:52:53;;;;;;;5.70;1.23;;;24.90;83.30;;;;;;5070114;28;20378;-82
2020/12/27 07:55:34;;;;;;;4.22;1.40;;;24.90;83.20;;;;;;5069973;28;20382;-82
2020/12/27 07:58:06;;;;;;;3.83;1.08;;;24.70;84.10;;;;;;5069685;28;20375;-82
2020/12/27 08:00:35;;;;;;;5.07;1.20;;;24.60;84.10;;;;;;5069733;28;20783;-82
2020/12/27 08:03:10;;;;;;;5.53;1.10;;;24.60;84.00;;;;;;5071130;28;20378;-82
2020/12/27 08:05:39;;;;;;;3.33;1.35;;;24.60;84.40;;;;;;5068187;28;20971;-82
2020/12/27 08:08:10;;;;;;;5.47;1.38;;;24.50;84.40;;;;;;5065802;28;20397;-81
2020/12/27 08:10:38;;;;;;;4.65;1.10;;;24.50;84.60;;;;;;5068816;28;20425;-83
2020/12/27 08:13:08;;;;;;;3.50;1.20;;;24.40;85.50;;;;;;5066769;28;20397;-83
2020/12/27 08:15:40;;;;;;;4.45;1.25;;;24.30;85.30;;;;;;5054418;28;20461;-82
2020/12/27 08:18:09;;;;;;;1.40;0.95;;;24.30;85.40;;;;;;5050001;28;20400;-84
2020/12/27 08:20:50;;;;;;;3.83;1.08;;;24.30;85.80;;;;;;5053175;28;20402;-84
2020/12/27 08:23:19;;;;;;;2.03;0.93;;;24.20;85.40;;;;;;5066555;28;20394;-84
2020/12/27 08:25:55;;;;;;;3.42;1.40;;;24.10;85.90;;;;;;5050481;28;20981;-85
2020/12/27 08:28:22;;;;;;;5.10;1.48;;;24.00;85.70;;;;;;5055109;28;20892;-84
2020/12/27 08:30:49;;;;;;;3.35;1.00;;;24.00;86.40;;;;;;5065226;28;20402;-84
2020/12/27 08:33:20;;;;;;;3.47;0.90;;;23.90;86.20;;;;;;5055579;28;20396;-83
2020/12/27 08:35:49;;;;;;;2.03;1.00;;;23.90;87.20;;;;;;5063930;28;20390;-83
2020/12/27 08:38:27;;;;;;;5.22;1.50;;;23.90;86.70;;;;;;5055401;28;20769;-83
2020/12/27 08:41:20;;;;;;;8.60;1.35;;;23.80;86.90;;;;;;5058666;28;20391;-83
2020/12/27 08:44:24;;;;;;;5.65;1.10;;;23.80;87.00;;;;;;5060199;28;20405;-85
2020/12/27 08:46:53;;;;;;;3.85;1.10;;;23.80;86.60;;;;;;5062817;28;20406;-82
2020/12/27 08:49:56;;;;;;;2.43;0.70;;;23.70;86.90;;;;;;5062090;28;20392;-85
2020/12/27 08:52:25;;;;;;;6.88;1.35;;;23.70;87.20;;;;;;5066441;28;20742;-83
2020/12/27 08:55:07;;;;;;;3.95;1.85;;;23.60;86.90;;;;;;5056401;28;20390;-83
2020/12/27 08:57:34;;;;;;;1.30;0.90;;;23.60;87.50;;;;;;5064370;28;20394;-83
2020/12/27 09:00:22;;;;;;;3.87;1.00;;;23.50;87.30;;;;;;5045585;28;20402;-82
2020/12/27 09:03:03;;;;;;;3.63;1.05;;;23.50;87.30;;;;;;5055464;28;20390;-85
2020/12/27 09:05:35;;;;;;;5.87;1.27;;;23.50;87.80;;;;;;5063254;28;20408;-84
2020/12/27 09:08:22;;;;;;;4.88;0.80;;;23.40;87.90;;;;;;5065356;28;20378;-83
2020/12/27 09:10:49;;;;;;;4.40;1.00;;;23.40;87.70;;;;;;5034745;28;20826;-83
2020/12/27 09:13:18;;;;;;;4.72;1.05;;;23.40;87.60;;;;;;5054218;28;20407;-83
2020/12/27 09:15:49;;;;;;;3.72;1.00;;;23.40;88.00;;;;;;5064717;28;20422;-84
2020/12/27 09:18:26;;;;;;;5.20;1.05;;;23.30;88.40;;;;;;5050604;28;20441;-83
2020/12/27 09:20:58;;;;;;;4.70;0.98;;;23.30;88.10;;;;;;5050526;28;20461;-83
2020/12/27 09:23:26;;;;;;;3.38;0.75;;;23.30;88.00;;;;;;5066371;28;20389;-83
2020/12/27 09:26:10;;;;;;;2.47;0.87;;;23.30;88.00;;;;;;5063843;28;20445;-83
2020/12/27 09:28:39;;;;;;;5.05;1.00;;;23.30;88.30;;;;;;5051227;28;20436;-83
2020/12/27 09:31:12;;;;;;;4.15;0.95;;;23.20;88.50;;;;;;5065154;28;20401;-84
2020/12/27 09:33:47;;;;;;;3.17;1.10;;;23.20;88.80;;;;;;5063900;28;20393;-84
2020/12/27 09:36:14;;;;;;;3.92;1.10;;;23.10;89.30;;;;;;5064021;28;20479;-84
2020/12/27 09:38:43;;;;;;;5.83;1.00;;;23.10;89.00;;;;;;5056729;28;20393;-84
2020/12/27 09:41:15;;;;;;;3.58;0.90;;;23.00;88.40;;;;;;5053962;28;20525;-86
2020/12/27 09:43:58;;;;;;;4.43;1.30;;;23.00;89.10;;;;;;5058455;28;20384;-85
2020/12/27 09:46:44;;;;;;;3.83;1.00;;;23.00;88.70;;;;;;5060516;28;20921;-84
2020/12/27 09:49:32;;;;;;;7.40;1.60;;;23.10;88.60;;;;;;5068155;28;20406;-85
2020/12/27 09:52:11;;;;;;;2.28;0.80;;;23.10;88.20;;;;;;5069684;28;20374;-83
2020/12/27 09:54:41;;;;;;;4.70;1.00;;;23.10;87.90;;;;;;5063460;28;20406;-84
2020/12/27 09:57:16;;;;;;;2.07;0.73;;;23.10;87.90;;;;;;5068657;28;20423;-85
2020/12/27 09:59:48;;;;;;;4.70;0.93;;;23.20;87.90;;;;;;5065689;28;20895;-83
2020/12/27 10:02:16;;;;;;;6.70;1.25;;;23.10;87.80;;;;;;5057186;28;20432;-83
2020/12/27 10:04:44;;;;;;;9.63;1.08;;;23.10;88.40;;;;;;5050071;28;20456;-85
2020/12/27 10:07:11;;;;;;;6.10;1.10;;;23.20;87.90;;;;;;5059175;28;20881;-85
2020/12/27 10:09:39;;;;;;;6.25;1.17;;;23.10;87.90;;;;;;5065647;28;20409;-84
2020/12/27 10:12:06;;;;;;;5.40;1.13;;;23.10;88.20;;;;;;5067011;28;20386;-85
2020/12/27 10:14:33;;;;;;;6.60;1.15;;;23.10;88.30;;;;;;5058399;28;20892;-85
2020/12/27 10:17:10;;;;;;;4.47;1.13;;;23.10;88.60;;;;;;5074466;28;20409;-85
2020/12/27 10:19:53;;;;;;;4.67;1.27;;;23.00;88.60;;;;;;5067650;28;20414;-84
2020/12/27 10:22:20;;;;;;;4.23;0.97;;;23.00;89.00;;;;;;5074893;28;20886;-84
2020/12/27 10:24:47;;;;;;;4.05;0.90;;;23.00;89.10;;;;;;5062647;28;20509;-84
2020/12/27 10:27:15;;;;;;;4.80;1.10;;;23.00;88.90;;;;;;5066250;28;20954;-85
2020/12/27 10:29:42;;;;;;;4.82;1.10;;;22.90;88.90;;;;;;5062805;28;20503;-84
2020/12/27 10:32:09;;;;;;;5.20;0.98;;;22.90;89.20;;;;;;5066764;28;20401;-85
2020/12/27 10:34:36;;;;;;;4.40;0.95;;;22.90;89.60;;;;;;5068433;28;20383;-83
2020/12/27 10:37:04;;;;;;;3.90;0.93;;;22.90;89.50;;;;;;5065210;28;20437;-83
2020/12/27 10:39:32;;;;;;;6.07;1.02;;;22.90;89.60;;;;;;5067608;28;20397;-84
2020/12/27 10:41:59;;;;;;;3.50;1.05;;;22.90;89.60;;;;;;5067902;28;20904;-84
2020/12/27 10:44:27;;;;;;;3.22;1.10;;;22.90;90.00;;;;;;5066520;28;20440;-85
2020/12/27 10:46:54;;;;;;;4.75;1.10;;;22.90;90.00;;;;;;5066375;28;20414;-84
2020/12/27 10:49:25;;;;;;;3.78;1.40;;;22.90;90.40;;;;;;5067504;28;20849;-85
2020/12/27 10:51:53;;;;;;;3.85;1.13;;;22.80;90.10;;;;;;5063638;28;20447;-84
2020/12/27 10:54:20;;;;;;;5.35;1.60;;;22.80;90.20;;;;;;5078596;28;20759;-84
2020/12/27 10:56:48;;;;;;;5.33;1.00;;;22.80;90.20;;;;;;5074616;28;22004;-81
2020/12/27 10:59:16;;;;;;;3.37;1.13;;;22.90;90.20;;;;;;5059083;28;20813;-80
2020/12/27 11:01:47;;;;;;;3.40;1.17;;;22.80;90.30;;;;;;5049385;28;20376;-85
2020/12/27 11:04:15;;;;;;;3.87;1.23;;;22.80;90.50;;;;;;5060590;28;20427;-85
2020/12/27 11:06:42;;;;;;;5.60;1.45;;;22.70;90.60;;;;;;5060751;28;20440;-84
2020/12/27 11:09:10;;;;;;;6.20;1.35;;;22.60;90.70;;;;;;5062771;28;21528;-85
2020/12/27 11:11:38;;;;;;;4.30;1.10;;;22.60;90.80;;;;;;5064757;28;20436;-84
2020/12/27 11:14:07;;;;;;;6.82;1.48;;;22.60;91.00;;;;;;5053480;28;20396;-82
2020/12/27 11:16:34;;;;;;;7.22;1.30;;;22.60;91.10;;;;;;5066322;28;20390;-84
2020/12/27 11:19:01;;;;;;;5.50;1.08;;;22.60;91.10;;;;;;5066704;28;20444;-82
2020/12/27 11:21:29;;;;;;;5.10;1.00;;;22.60;91.10;;;;;;5067934;28;20707;-84
2020/12/27 11:23:56;;;;;;;4.28;1.20;;;22.60;91.30;;;;;;5066025;28;20404;-84
2020/12/27 11:26:23;;;;;;;5.70;1.35;;;22.50;91.50;;;;;;5059184;28;20497;-84
2020/12/27 11:28:51;;;;;;;6.05;1.20;;;22.50;91.20;;;;;;5059375;28;20450;-84
2020/12/27 11:31:19;;;;;;;4.38;1.13;;;22.50;91.40;;;;;;5029721;28;20483;-84
2020/12/27 11:33:47;;;;;;;2.28;0.90;;;22.50;91.40;;;;;;5062997;28;20519;-82
2020/12/27 11:36:18;;;;;;;3.17;1.02;;;22.60;91.40;;;;;;5066796;28;20406;-84
2020/12/27 11:38:45;;;;;;;2.40;1.00;;;22.60;91.30;;;;;;5054026;28;20403;-84
2020/12/27 11:41:13;;;;;;;6.17;1.13;;;22.60;91.40;;;;;;5064670;28;20950;-84
2020/12/27 11:43:41;;;;;;;2.60;1.13;;;22.60;91.40;;;;;;5064860;28;20386;-82
2020/12/27 11:46:09;;;;;;;4.30;1.30;;;22.50;91.40;;;;;;5066302;28;20413;-84
2020/12/27 11:48:36;;;;;;;4.32;1.13;;;22.60;91.40;;;;;;5066278;28;20517;-83
2020/12/27 11:51:03;;;;;;;2.63;1.25;;;22.60;91.30;;;;;;5067261;28;20407;-83
2020/12/27 11:53:31;;;;;;;4.18;1.17;;;22.70;91.10;;;;;;5066540;28;20485;-83
2020/12/27 11:55:58;;;;;;;3.85;1.20;;;22.70;91.10;;;;;;5055713;28;20499;-84
2020/12/27 11:58:25;;;;;;;4.37;1.37;;;22.80;91.00;;;;;;5064444;28;20408;-84
2020/12/27 12:00:52;;;;;;;7.00;1.30;;;22.80;91.00;;;;;;5065464;28;20484;-83
2020/12/27 12:03:19;;;;;;;3.50;1.10;;;22.80;91.00;;;;;;5066884;28;20385;-83
2020/12/27 12:05:46;;;;;;;4.65;1.17;;;22.80;91.10;;;;;;5062514;28;20463;-83
2020/12/27 12:08:15;;;;;;;3.95;1.23;;;22.80;91.10;;;;;;5065018;28;20942;-83
2020/12/27 12:10:42;;;;;;;4.97;1.02;;;22.80;91.10;;;;;;5064132;28;20547;-83
2020/12/27 12:13:09;;;;;;;4.50;1.40;;;22.90;91.10;;;;;;5054379;28;20447;-83
2020/12/27 12:15:36;;;;;;;4.03;1.27;;;22.90;91.00;;;;;;5065407;28;20394;-84
2020/12/27 12:18:03;;;;;;;3.53;1.05;;;22.90;91.00;;;;;;5066646;28;20431;-84
2020/12/27 12:20:43;;;;;;;3.40;1.10;;;22.80;91.10;;;;;;5066776;28;20397;-83
2020/12/27 12:23:10;;;;;;;1.95;1.02;;;22.80;91.20;;;;;;5068387;28;20456;-82
2020/12/27 12:25:43;;;;;;;5.43;1.20;;;22.70;91.30;;;;;;5062839;28;20413;-82
2020/12/27 12:28:10;;;;;;;4.10;1.20;;;22.80;91.20;;;;;;5060352;28;20411;-81
2020/12/27 12:30:41;;;;;;;4.07;1.50;;;22.70;91.40;;;;;;5065014;28;20420;-81
2020/12/27 12:33:08;;;;;;;3.25;1.40;;;22.80;91.70;;;;;;5063904;28;20817;-81
2020/12/27 12:35:36;;;;;;;4.95;1.50;;;22.70;91.60;;;;;;5064212;28;20438;-82
2020/12/27 12:38:04;;;;;;;2.03;1.27;;;22.70;91.50;;;;;;5068288;28;20386;-83
2020/12/27 12:40:31;;;;;;;4.95;1.35;;;22.70;91.50;;;;;;5055046;28;20395;-82
2020/12/27 12:42:58;;;;;;;4.13;1.30;;;22.70;91.60;;;;;;5056140;28;20376;-82
2020/12/27 12:45:25;;;;;;;2.90;1.23;;;22.70;91.30;;;;;;5062843;28;20993;-82
2020/12/27 12:47:52;;;;;;;5.70;1.30;;;22.80;91.20;;;;;;5064884;28;20389;-82
2020/12/27 12:50:19;;;;;;;2.15;0.90;;;22.80;91.00;;;;;;5066694;28;20390;-83
2020/12/27 12:52:46;;;;;;;3.78;1.00;;;22.90;90.90;;;;;;5061451;28;20393;-82
2020/12/27 12:55:14;;;;;;;3.28;1.10;;;22.90;90.90;;;;;;5066100;28;20401;-83
2020/12/27 12:57:41;;;;;;;4.38;1.00;;;22.90;90.70;;;;;;5065391;28;20386;-83
2020/12/27 13:00:08;;;;;;;5.65;1.15;;;22.90;90.90;;;;;;5067852;28;20386;-82
2020/12/27 13:02:35;;;;;;;4.00;1.50;;;22.90;90.90;;;;;;5066757;28;21205;-82